createdAt,value
2019-02-08T00:02:00.909Z,31.83
2019-02-08T00:05:06.508Z,21.30
2019-02-08T00:08:10.819Z,30.93
2019-02-08T00:11:15.627Z,34.30
2019-02-08T00:14:19.922Z,20.17
2019-02-08T00:17:24.204Z,26.67
2019-02-08T00:20:28.879Z,31.63
2019-02-08T00:23:33.255Z,33.40
2019-02-08T00:26:37.955Z,24.47
2019-02-08T00:29:42.520Z,26.20
2019-02-08T00:32:47.010Z,20.20
2019-02-08T00:35:51.321Z,25.60
2019-02-08T00:38:55.796Z,26.20
2019-02-08T00:42:00.076Z,15.23
2019-02-08T00:45:05.317Z,30.20
2019-02-08T00:48:10.016Z,24.53
2019-02-08T00:51:14.305Z,32.47
2019-02-08T00:54:18.789Z,32.37
2019-02-08T00:57:23.463Z,33.67
2019-02-08T01:00:27.854Z,22.03
2019-02-08T01:03:32.270Z,19.03
2019-02-08T01:06:36.901Z,29.93
2019-02-08T01:09:41.167Z,21.17
2019-02-08T01:12:45.476Z,23.20
2019-02-08T01:15:50.118Z,21.93
2019-02-08T01:18:54.399Z,26.23
2019-02-08T01:21:58.744Z,36.07
2019-02-08T01:25:03.130Z,18.30
2019-02-08T01:28:08.380Z,18.63
2019-02-08T01:31:13.337Z,22.47
2019-02-08T01:34:18.389Z,22.17
2019-02-08T01:37:22.754Z,29.63
2019-02-08T01:40:32.092Z,23.63
2019-02-08T01:43:36.378Z,18.07
2019-02-08T01:46:40.668Z,24.53
2019-02-08T01:49:44.999Z,26.50
2019-02-08T01:52:49.696Z,21.63
2019-02-08T01:55:53.983Z,23.47
2019-02-08T01:58:58.260Z,19.13
2019-02-08T02:02:02.640Z,24.90
2019-02-08T02:05:09.276Z,25.60
2019-02-08T02:08:13.667Z,21.07
2019-02-08T02:11:18.194Z,22.93
2019-02-08T02:14:22.587Z,19.20
2019-02-08T02:17:26.873Z,18.73
2019-02-08T02:20:37.024Z,20.23
2019-02-08T02:23:41.293Z,19.57
2019-02-08T02:26:45.563Z,21.77
2019-02-08T02:29:50.055Z,20.63
2019-02-08T02:32:54.349Z,28.77
2019-02-08T02:35:58.623Z,25.43
2019-02-08T02:39:02.911Z,20.97
2019-02-08T02:42:07.283Z,19.47
2019-02-08T02:45:23.415Z,24.20
2019-02-08T02:48:27.757Z,12.63
2019-02-08T02:51:32.068Z,12.97
2019-02-08T02:54:36.342Z,15.90
2019-02-08T02:57:40.902Z,19.03
2019-02-08T03:00:47.605Z,10.17
2019-02-08T03:03:51.913Z,20.43
2019-02-08T03:06:56.203Z,25.80
2019-02-08T03:10:00.493Z,25.87
2019-02-08T03:13:06.901Z,17.83
2019-02-08T03:16:11.185Z,22.60
2019-02-08T03:19:15.469Z,30.33
2019-02-08T03:22:19.750Z,18.43
2019-02-08T03:25:25.669Z,27.93
2019-02-08T03:28:29.959Z,29.20
2019-02-08T03:31:34.491Z,20.63
2019-02-08T03:34:38.730Z,21.43
2019-02-08T03:37:43.019Z,26.23
2019-02-08T03:40:47.313Z,23.40
2019-02-08T03:43:51.615Z,20.97
2019-02-08T03:46:56.062Z,22.43
2019-02-08T03:50:01.426Z,24.43
2019-02-08T03:53:06.473Z,26.87
2019-02-08T03:56:10.735Z,25.33
2019-02-08T03:59:15.331Z,27.00
2019-02-08T04:02:19.612Z,31.17
2019-02-08T04:05:24.098Z,18.37
2019-02-08T04:08:30.630Z,28.63
2019-02-08T04:11:34.914Z,31.57
2019-02-08T04:14:39.246Z,17.90
2019-02-08T04:17:43.501Z,22.53
2019-02-08T04:20:47.873Z,23.07
2019-02-08T04:23:52.362Z,21.57
2019-02-08T04:26:56.636Z,24.80
2019-02-08T04:30:00.936Z,22.50
2019-02-08T04:33:05.607Z,19.77
2019-02-08T04:36:10.022Z,19.73
2019-02-08T04:39:16.933Z,27.63
2019-02-08T04:42:24.231Z,20.70
2019-02-08T04:45:28.575Z,20.23
2019-02-08T04:48:32.882Z,18.00
2019-02-08T04:51:37.176Z,27.83
2019-02-08T04:54:41.460Z,31.17
2019-02-08T04:57:45.949Z,22.63
2019-02-08T05:00:50.235Z,19.80
2019-02-08T05:03:54.552Z,15.83
2019-02-08T05:06:58.799Z,23.83
2019-02-08T05:10:03.094Z,24.00
2019-02-08T05:13:07.378Z,22.10
2019-02-08T05:16:14.534Z,19.20
2019-02-08T05:19:18.847Z,22.07
2019-02-08T05:22:23.136Z,20.03
2019-02-08T05:25:27.755Z,22.87
2019-02-08T05:28:32.040Z,18.60
2019-02-08T05:31:36.369Z,26.10
2019-02-08T05:34:40.656Z,23.60
2019-02-08T05:37:44.929Z,26.17
2019-02-08T05:40:49.577Z,22.23
2019-02-08T05:43:53.879Z,23.90
2019-02-08T05:46:58.158Z,26.27
2019-02-08T05:50:02.596Z,20.80
2019-02-08T05:53:07.197Z,18.23
2019-02-08T05:56:11.503Z,25.27
2019-02-08T05:59:15.801Z,17.80
2019-02-08T06:02:20.069Z,24.53
2019-02-08T06:05:24.766Z,21.97
2019-02-08T06:08:29.034Z,30.23
2019-02-08T06:11:33.334Z,33.50
2019-02-08T06:14:37.665Z,23.60
2019-02-08T06:17:42.020Z,33.23
2019-02-08T06:20:46.490Z,28.80
2019-02-08T06:23:50.753Z,24.83
2019-02-08T06:26:55.025Z,26.00
2019-02-08T06:29:59.322Z,30.43
2019-02-08T06:33:03.724Z,29.37
2019-02-08T06:36:08.014Z,22.57
2019-02-08T06:39:13.950Z,29.10
2019-02-08T06:42:18.367Z,29.23
2019-02-08T06:45:24.144Z,32.83
2019-02-08T06:48:28.512Z,30.10
2019-02-08T06:51:32.909Z,34.70
2019-02-08T06:54:37.307Z,28.97
2019-02-08T06:58:18.866Z,33.57
2019-02-08T07:01:40.001Z,39.57
2019-02-08T07:04:51.093Z,26.50
2019-02-08T07:08:26.469Z,20.63
2019-02-08T07:11:52.768Z,32.23
2019-02-08T07:15:28.241Z,32.57
2019-02-08T07:18:51.477Z,25.77
2019-02-08T07:22:20.652Z,37.40
2019-02-08T07:25:46.949Z,31.93
2019-02-08T07:29:13.260Z,33.17
2019-02-08T07:32:30.861Z,30.90
2019-02-08T07:35:57.718Z,29.90
2019-02-08T07:39:27.220Z,31.30
2019-02-08T07:42:56.838Z,34.80
2019-02-08T07:46:12.418Z,36.43
2019-02-08T07:49:45.363Z,32.03
2019-02-08T07:53:05.642Z,33.17
2019-02-08T07:56:21.120Z,30.07
2019-02-08T07:59:33.587Z,37.53
2019-02-08T08:02:51.024Z,30.43
2019-02-08T08:06:13.610Z,30.20
2019-02-08T08:09:39.971Z,29.30
2019-02-08T08:13:07.911Z,28.10
2019-02-08T08:16:35.893Z,24.57
2019-02-08T08:20:06.601Z,24.67
2019-02-08T08:23:30.007Z,26.20
2019-02-08T08:26:55.823Z,24.63
2019-02-08T08:30:16.943Z,27.87
2019-02-08T08:33:38.398Z,28.27
2019-02-08T08:37:24.804Z,26.03
2019-02-08T08:41:17.950Z,23.17
2019-02-08T08:44:53.618Z,27.50
2019-02-08T08:48:45.166Z,20.93
2019-02-08T08:52:29.539Z,20.50
2019-02-08T08:55:58.586Z,25.23
2019-02-08T08:59:29.222Z,21.63
2019-02-08T09:03:35.925Z,24.63
2019-02-08T09:07:24.068Z,24.20
2019-02-08T09:11:20.395Z,27.57
2019-02-08T09:15:08.615Z,24.70
2019-02-08T09:19:00.478Z,26.80
2019-02-08T09:22:47.421Z,28.33
2019-02-08T09:26:18.507Z,26.57
2019-02-08T09:30:18.514Z,25.00
2019-02-08T09:34:31.171Z,26.30
2019-02-08T09:38:18.201Z,21.23
2019-02-08T09:42:12.990Z,30.60
2019-02-08T09:45:54.853Z,27.23
2019-02-08T09:49:44.634Z,23.43
2019-02-08T09:53:39.302Z,23.17
2019-02-08T09:57:36.583Z,23.50
2019-02-08T10:01:23.151Z,21.07
2019-02-08T10:05:05.824Z,18.20
2019-02-08T10:08:58.216Z,23.40
2019-02-08T10:12:55.444Z,21.63
2019-02-08T10:17:03.893Z,20.20
2019-02-08T10:20:39.274Z,23.10
2019-02-08T10:24:21.368Z,24.27
2019-02-08T10:28:15.836Z,19.13
2019-02-08T10:31:57.744Z,16.17
2019-02-08T10:35:37.763Z,18.67
2019-02-08T10:39:37.138Z,17.07
2019-02-08T10:43:31.528Z,18.93
2019-02-08T10:47:01.817Z,19.30
2019-02-08T10:50:32.842Z,16.13
2019-02-08T10:54:24.500Z,21.63
2019-02-08T10:58:20.529Z,20.33
2019-02-08T11:02:00.615Z,16.13
2019-02-08T11:06:00.059Z,16.73
2019-02-08T11:09:42.893Z,21.33
2019-02-08T11:13:26.779Z,19.93
2019-02-08T11:17:27.113Z,17.17
2019-02-08T11:20:31.583Z,16.97
2019-02-08T11:23:36.960Z,22.20
2019-02-08T11:26:41.273Z,15.57
2019-02-08T11:29:45.623Z,19.57
2019-02-08T11:32:49.955Z,19.90
2019-02-08T11:35:54.415Z,17.50
2019-02-08T11:38:58.696Z,19.17
2019-02-08T11:42:02.999Z,18.80
2019-02-08T11:45:08.242Z,18.03
2019-02-08T11:48:12.542Z,17.00
2019-02-08T11:51:16.942Z,15.80
2019-02-08T11:54:21.245Z,15.73
2019-02-08T11:57:25.593Z,16.47
2019-02-08T12:00:37.187Z,14.23
2019-02-08T12:03:41.492Z,16.47
2019-02-08T12:06:45.802Z,17.43
2019-02-08T12:09:50.198Z,18.53
2019-02-08T12:12:54.629Z,14.20
2019-02-08T12:15:59.024Z,21.40
2019-02-08T12:19:03.335Z,19.13
2019-02-08T12:22:07.650Z,22.63
2019-02-08T12:25:12.516Z,20.93
2019-02-08T12:28:16.950Z,22.73
2019-02-08T12:31:21.567Z,23.00
2019-02-08T12:34:25.892Z,21.50
2019-02-08T12:37:30.315Z,20.30
2019-02-08T12:40:34.731Z,21.53
2019-02-08T12:43:39.153Z,23.43
2019-02-08T12:46:43.792Z,19.87
2019-02-08T12:49:51.233Z,16.50
2019-02-08T12:52:55.503Z,18.20
2019-02-08T12:55:59.936Z,18.83
2019-02-08T12:59:04.554Z,18.00
2019-02-08T13:02:08.946Z,21.37
2019-02-08T13:05:15.877Z,18.97
2019-02-08T13:08:20.292Z,19.00
2019-02-08T13:11:28.992Z,15.10
2019-02-08T13:14:33.278Z,16.60
2019-02-08T13:17:37.581Z,15.17
2019-02-08T13:20:42.102Z,16.10
2019-02-08T13:23:48.569Z,12.00
2019-02-08T13:26:53.204Z,16.67
2019-02-08T13:29:57.936Z,15.20
2019-02-08T13:33:02.647Z,14.60
2019-02-08T13:36:13.104Z,19.23
2019-02-08T13:39:20.678Z,15.43
2019-02-08T13:42:27.336Z,17.23
2019-02-08T13:45:31.391Z,14.97
2019-02-08T13:48:37.139Z,14.80
2019-02-08T13:51:41.695Z,16.33
2019-02-08T13:54:45.986Z,14.73
2019-02-08T13:57:53.476Z,17.40
2019-02-08T14:00:57.765Z,16.90
2019-02-08T14:04:02.180Z,17.27
2019-02-08T14:07:09.496Z,15.60
2019-02-08T14:10:15.411Z,15.03
2019-02-08T14:13:19.684Z,16.80
2019-02-08T14:16:24.025Z,16.17
2019-02-08T14:19:28.321Z,15.03
2019-02-08T14:22:35.408Z,19.37
2019-02-08T14:25:39.718Z,23.13
2019-02-08T14:28:44.007Z,17.73
2019-02-08T14:31:48.317Z,22.53
2019-02-08T14:34:52.666Z,20.17
2019-02-08T14:37:57.734Z,18.77
2019-02-08T14:41:02.114Z,19.60
2019-02-08T14:44:06.621Z,21.50
2019-02-08T14:47:11.164Z,20.43
2019-02-08T14:50:18.521Z,20.73
2019-02-08T14:53:22.852Z,21.00
2019-02-08T14:56:27.160Z,23.57
2019-02-08T14:59:31.523Z,19.97
2019-02-08T15:02:36.032Z,24.03
2019-02-08T15:05:40.544Z,21.10
2019-02-08T15:08:44.955Z,22.83
2019-02-08T15:11:49.272Z,24.10
2019-02-08T15:14:53.569Z,22.47
2019-02-08T15:17:58.004Z,21.60
2019-02-08T15:21:02.478Z,22.03
2019-02-08T15:24:10.117Z,21.03
2019-02-08T15:27:14.436Z,26.67
2019-02-08T15:30:21.653Z,26.10
2019-02-08T15:33:25.959Z,24.17
2019-02-08T15:36:30.242Z,17.53
2019-02-08T15:39:39.454Z,25.07
2019-02-08T15:42:47.360Z,23.20
2019-02-08T15:45:54.848Z,22.13
2019-02-08T15:48:59.227Z,24.80
2019-02-08T15:52:03.513Z,25.53
2019-02-08T15:55:10.770Z,26.70
2019-02-08T15:58:15.052Z,23.57
2019-02-08T16:01:19.616Z,27.17
2019-02-08T16:04:23.995Z,26.20
2019-02-08T16:07:28.385Z,24.60
2019-02-08T16:10:32.804Z,29.63
2019-02-08T16:13:37.226Z,25.93
2019-02-08T16:16:41.617Z,26.50
2019-02-08T16:19:46.009Z,25.97
2019-02-08T16:22:50.877Z,30.40
2019-02-08T16:25:55.290Z,28.17
2019-02-08T16:28:59.584Z,27.30
2019-02-08T16:32:03.913Z,26.47
2019-02-08T16:35:09.484Z,31.77
2019-02-08T16:38:13.806Z,27.33
2019-02-08T16:41:18.138Z,29.83
2019-02-08T16:44:22.434Z,29.03
2019-02-08T16:47:26.718Z,31.13
2019-02-08T16:50:33.290Z,26.50
2019-02-08T16:53:37.588Z,27.23
2019-02-08T16:56:41.901Z,27.73
2019-02-08T16:59:46.317Z,27.40
2019-02-08T17:02:50.804Z,28.63
2019-02-08T17:05:58.135Z,29.40
2019-02-08T17:09:02.457Z,28.40
2019-02-08T17:12:06.943Z,29.40
2019-02-08T17:15:14.070Z,27.67
2019-02-08T17:18:18.338Z,26.10
2019-02-08T17:21:22.647Z,24.53
2019-02-08T17:24:26.962Z,27.67
2019-02-08T17:27:31.254Z,24.23
2019-02-08T17:30:35.857Z,24.37
2019-02-08T17:33:40.259Z,25.10
2019-02-08T17:36:44.625Z,23.80
2019-02-08T17:39:49.022Z,24.93
2019-02-08T17:42:53.310Z,23.90
2019-02-08T17:45:57.604Z,23.87
2019-02-08T17:49:01.909Z,24.47
2019-02-08T17:52:06.258Z,24.73
2019-02-08T17:55:12.294Z,23.77
2019-02-08T17:58:16.724Z,23.60
2019-02-08T18:01:21.146Z,23.60
2019-02-08T18:04:25.901Z,25.73
2019-02-08T18:07:30.402Z,24.07
2019-02-08T18:10:36.910Z,24.87
2019-02-08T18:13:41.275Z,21.73
2019-02-08T18:16:45.571Z,21.60
2019-02-08T18:19:49.898Z,17.37
2019-02-08T18:22:54.500Z,20.00
2019-02-08T18:25:58.803Z,21.50
2019-02-08T18:29:03.200Z,19.17
2019-02-08T18:32:07.504Z,23.10
2019-02-08T18:35:12.062Z,18.13
2019-02-08T18:38:16.568Z,22.17
2019-02-08T18:41:20.973Z,17.67
2019-02-08T18:44:25.465Z,19.07
2019-02-08T18:47:29.732Z,18.93
2019-02-08T18:50:45.870Z,16.93
2019-02-08T18:53:52.604Z,18.50
2019-02-08T18:56:56.902Z,17.33
2019-02-08T19:00:01.208Z,16.37
2019-02-08T19:03:06.101Z,19.60
2019-02-08T19:06:10.505Z,17.30
2019-02-08T19:09:14.786Z,15.93
2019-02-08T19:12:19.306Z,15.83
2019-02-08T19:15:24.373Z,14.80
2019-02-08T19:18:28.710Z,14.67
2019-02-08T19:21:36.060Z,16.07
2019-02-08T19:24:40.577Z,14.33
2019-02-08T19:27:44.945Z,16.13
2019-02-08T19:30:49.436Z,18.80
2019-02-08T19:33:53.815Z,17.87
2019-02-08T19:37:00.228Z,13.87
2019-02-08T19:40:06.413Z,16.43
2019-02-08T19:43:11.042Z,16.50
2019-02-08T19:46:15.641Z,16.70
2019-02-08T19:49:20.132Z,14.27
2019-02-08T19:52:24.793Z,15.93
2019-02-08T19:55:29.672Z,16.93
2019-02-08T19:58:34.912Z,15.17
2019-02-08T20:01:39.738Z,13.50
2019-02-08T20:04:44.370Z,16.37
2019-02-08T20:07:48.987Z,14.50
2019-02-08T20:10:53.481Z,14.67
2019-02-08T20:13:58.031Z,12.83
2019-02-08T20:17:02.505Z,14.47
2019-02-08T20:20:08.675Z,16.50
2019-02-08T20:23:13.427Z,14.23
2019-02-08T20:26:18.064Z,16.37
2019-02-08T20:29:22.899Z,14.97
2019-02-08T20:32:27.846Z,15.57
2019-02-08T20:35:32.472Z,13.43
2019-02-08T20:38:39.874Z,17.37
2019-02-08T20:41:44.536Z,12.13
2019-02-08T20:44:49.072Z,15.53
2019-02-08T20:47:54.537Z,12.30
2019-02-08T20:50:59.198Z,14.70
2019-02-08T20:54:04.173Z,12.80
2019-02-08T20:57:09.147Z,12.40
2019-02-08T21:00:28.072Z,12.97
2019-02-08T21:03:32.847Z,15.00
2019-02-08T21:06:37.423Z,13.57
2019-02-08T21:09:41.991Z,14.93
2019-02-08T21:12:49.627Z,12.07
2019-02-08T21:15:53.993Z,13.10
2019-02-08T21:18:58.797Z,15.17
2019-02-08T21:22:03.355Z,14.00
2019-02-08T21:25:09.457Z,14.63
2019-02-08T21:28:13.822Z,15.70
2019-02-08T21:31:18.384Z,15.97
2019-02-08T21:34:22.722Z,17.80
2019-02-08T21:37:27.073Z,15.37
2019-02-08T21:40:31.399Z,15.73
2019-02-08T21:43:35.736Z,18.87
2019-02-08T21:46:40.113Z,14.90
2019-02-08T21:49:44.540Z,20.17
2019-02-08T21:52:48.823Z,15.60
2019-02-08T21:55:53.137Z,15.60
2019-02-08T21:58:57.656Z,19.60
2019-02-08T22:02:01.948Z,15.17
2019-02-08T22:05:07.269Z,14.83
2019-02-08T22:08:14.291Z,13.57
2019-02-08T22:11:18.605Z,16.30
2019-02-08T22:14:22.882Z,14.60
2019-02-08T22:17:27.390Z,17.17
2019-02-08T22:20:32.011Z,14.60
2019-02-08T22:23:36.312Z,16.43
2019-02-08T22:26:40.600Z,15.70
2019-02-08T22:29:44.935Z,16.73
2019-02-08T22:32:49.972Z,14.87
2019-02-08T22:35:57.127Z,18.10
2019-02-08T22:39:01.413Z,11.83
2019-02-08T22:42:05.752Z,15.77
2019-02-08T22:45:16.839Z,16.73
2019-02-08T22:48:21.154Z,17.23
2019-02-08T22:51:25.470Z,17.07
2019-02-08T22:54:29.989Z,17.73
2019-02-08T22:57:34.263Z,19.77
2019-02-08T23:01:26.804Z,16.47
2019-02-08T23:04:31.080Z,15.83
2019-02-08T23:07:35.355Z,16.63
2019-02-08T23:10:40.050Z,16.13
2019-02-08T23:13:44.331Z,16.97
2019-02-08T23:16:48.605Z,18.40
2019-02-08T23:19:53.003Z,13.63
2019-02-08T23:22:57.264Z,14.27
2019-02-08T23:26:02.426Z,17.67
2019-02-08T23:29:06.847Z,15.17
2019-02-08T23:32:11.164Z,16.60
2019-02-08T23:35:15.620Z,17.13
2019-02-08T23:38:19.896Z,19.00
2019-02-08T23:41:24.261Z,16.47
2019-02-08T23:44:28.541Z,17.07
2019-02-08T23:47:32.816Z,14.10
2019-02-08T23:50:37.077Z,14.67
2019-02-08T23:53:41.375Z,18.50
2019-02-08T23:56:46.132Z,17.57
2019-02-08T23:59:50.553Z,14.13
